createdAt,value
2022-12-18T00:00:11.456Z,99890.66
2022-12-18T00:02:42.243Z,99900.28
2022-12-18T00:05:10.830Z,99895.38
2022-12-18T00:07:39.165Z,99899.03
2022-12-18T00:10:08.485Z,99895.81
2022-12-18T00:12:38.710Z,99901.97
2022-12-18T00:15:07.573Z,99900.38
2022-12-18T00:17:37.022Z,99900.31
2022-12-18T00:20:05.512Z,99902.63
2022-12-18T00:22:33.432Z,99906.13
2022-12-18T00:25:03.430Z,99894.31
2022-12-18T00:27:33.619Z,99897.59
2022-12-18T00:30:01.481Z,99905.09
2022-12-18T00:32:29.394Z,99900.53
2022-12-18T00:35:00.694Z,99914.78
2022-12-18T00:37:28.723Z,99916.94
2022-12-18T00:39:59.679Z,99922.34
2022-12-18T00:42:45.280Z,99919.91
2022-12-18T00:45:13.474Z,99915.91
2022-12-18T00:47:41.895Z,99918.09
2022-12-18T00:50:13.655Z,99920.88
2022-12-18T00:52:43.590Z,99912.41
2022-12-18T00:55:12.245Z,99907.28
2022-12-18T00:57:40.280Z,99910.56
2022-12-18T01:00:12.262Z,99905.25
2022-12-18T01:02:40.516Z,99912.31
2022-12-18T01:05:12.077Z,99915.38
2022-12-18T01:07:43.830Z,99911.31
2022-12-18T01:10:13.571Z,99913.81
2022-12-18T01:12:41.584Z,99900.00
2022-12-18T01:15:11.716Z,99906.88
2022-12-18T01:17:42.080Z,99906.72
2022-12-18T01:20:12.852Z,99915.97
2022-12-18T01:22:40.791Z,99929.50
2022-12-18T01:25:10.893Z,99923.81
2022-12-18T01:27:38.760Z,99922.34
2022-12-18T01:30:10.168Z,99929.41
2022-12-18T01:32:38.167Z,99931.16
2022-12-18T01:35:07.451Z,99923.22
2022-12-18T01:37:35.561Z,99920.06
2022-12-18T01:40:03.378Z,99918.03
2022-12-18T01:42:32.656Z,99916.75
2022-12-18T01:45:04.225Z,99932.00
2022-12-18T01:47:38.661Z,99937.31
2022-12-18T01:50:11.138Z,99935.28
2022-12-18T01:52:43.257Z,99941.13
2022-12-18T01:55:13.115Z,99929.47
2022-12-18T01:57:42.995Z,99918.50
2022-12-18T02:00:16.298Z,99913.56
2022-12-18T02:02:46.096Z,99915.31
2022-12-18T02:05:17.682Z,99909.41
2022-12-18T02:07:57.498Z,99913.81
2022-12-18T02:10:33.730Z,99919.94
2022-12-18T02:13:14.019Z,99910.00
2022-12-18T02:15:49.107Z,99912.72
2022-12-18T02:18:22.770Z,99920.88
2022-12-18T02:21:00.882Z,99922.84
2022-12-18T02:23:47.724Z,99918.22
2022-12-18T02:26:21.891Z,99925.19
2022-12-18T02:28:56.790Z,99931.16
2022-12-18T02:31:29.287Z,99935.38
2022-12-18T02:34:00.714Z,99937.31
2022-12-18T02:36:30.937Z,99937.13
2022-12-18T02:39:01.196Z,99926.53
2022-12-18T02:41:31.995Z,99937.94
2022-12-18T02:44:04.060Z,99939.84
2022-12-18T02:46:38.626Z,99940.06
2022-12-18T02:49:24.103Z,99934.78
2022-12-18T02:51:57.701Z,99946.78
2022-12-18T02:54:57.905Z,99948.59
2022-12-18T02:57:35.924Z,99946.75
2022-12-18T03:00:10.787Z,99943.56
2022-12-18T03:02:43.858Z,99940.31
2022-12-18T03:05:16.193Z,99944.63
2022-12-18T03:07:53.700Z,99938.72
2022-12-18T03:10:29.590Z,99933.63
2022-12-18T03:13:04.175Z,99941.34
2022-12-18T03:15:37.783Z,99943.09
2022-12-18T03:18:15.331Z,99943.91
2022-12-18T03:20:45.534Z,99952.53
2022-12-18T03:23:22.297Z,99954.09
2022-12-18T03:25:56.422Z,99945.59
2022-12-18T03:28:33.625Z,99952.56
2022-12-18T03:31:07.754Z,99943.03
2022-12-18T03:33:42.176Z,99954.34
2022-12-18T03:36:10.710Z,99960.84
2022-12-18T03:38:40.035Z,99965.25
2022-12-18T03:41:21.765Z,99961.75
2022-12-18T03:44:18.383Z,99943.81
2022-12-18T03:46:55.739Z,99950.56
2022-12-18T03:49:30.144Z,99955.69
2022-12-18T03:52:05.706Z,99953.28
2022-12-18T03:54:36.463Z,99961.56
2022-12-18T03:57:15.798Z,99960.72
2022-12-18T03:59:46.913Z,99959.91
2022-12-18T04:02:19.005Z,99954.06
2022-12-18T04:04:50.356Z,99946.38
2022-12-18T04:07:20.429Z,99947.22
2022-12-18T04:09:50.494Z,99951.53
2022-12-18T04:12:19.711Z,99943.91
2022-12-18T04:14:50.896Z,99948.91
2022-12-18T04:17:18.867Z,99948.03
2022-12-18T04:19:46.836Z,99950.50
2022-12-18T04:22:14.967Z,99946.53
2022-12-18T04:24:47.449Z,99950.50
2022-12-18T04:27:23.923Z,99952.31
2022-12-18T04:29:55.798Z,99955.69
2022-12-18T04:32:23.896Z,99961.81
2022-12-18T04:34:51.891Z,99970.31
2022-12-18T04:37:19.896Z,99981.38
2022-12-18T04:39:50.329Z,99970.81
2022-12-18T04:42:25.846Z,99967.34
2022-12-18T04:44:55.001Z,99961.44
2022-12-18T04:47:22.830Z,99960.41
2022-12-18T04:49:57.953Z,99951.50
2022-12-18T04:52:25.882Z,99953.41
2022-12-18T04:54:53.780Z,99951.34
2022-12-18T04:57:21.682Z,99952.44
2022-12-18T04:59:49.488Z,99959.31
2022-12-18T05:02:20.883Z,99944.84
2022-12-18T05:04:48.847Z,99950.84
2022-12-18T05:07:16.946Z,99950.03
2022-12-18T05:09:44.849Z,99951.72
2022-12-18T05:12:13.123Z,99949.88
2022-12-18T05:14:40.930Z,99942.84
2022-12-18T05:17:08.855Z,99958.31
2022-12-18T05:19:38.020Z,99956.16
2022-12-18T05:22:08.649Z,99952.16
2022-12-18T05:24:36.563Z,99967.63
2022-12-18T05:27:04.675Z,99973.59
2022-12-18T05:29:32.550Z,99978.56
2022-12-18T05:32:00.527Z,99980.38
2022-12-18T05:34:28.485Z,99971.69
2022-12-18T05:36:57.757Z,99981.28
2022-12-18T05:39:25.587Z,99981.75
2022-12-18T05:41:53.547Z,99987.53
2022-12-18T05:44:23.465Z,99980.09
2022-12-18T05:46:51.343Z,99989.47
2022-12-18T05:49:19.255Z,99992.75
2022-12-18T05:51:47.188Z,99985.53
2022-12-18T05:54:16.371Z,99973.69
2022-12-18T05:56:48.485Z,99971.88
2022-12-18T05:59:16.714Z,99967.63
2022-12-18T06:01:45.169Z,99971.34
2022-12-18T06:04:13.361Z,99971.41
2022-12-18T06:06:43.497Z,99979.09
2022-12-18T06:09:11.534Z,99978.34
2022-12-18T06:11:40.831Z,99980.72
2022-12-18T06:14:09.265Z,99981.63
2022-12-18T06:16:37.205Z,99979.59
2022-12-18T06:19:07.491Z,99987.38
2022-12-18T06:21:35.914Z,99989.56
2022-12-18T06:24:04.211Z,99985.38
2022-12-18T06:26:32.246Z,99975.59
2022-12-18T06:29:01.488Z,99985.31
2022-12-18T06:31:29.515Z,99990.38
2022-12-18T06:33:58.183Z,99991.94
2022-12-18T06:36:26.155Z,100003.00
2022-12-18T06:38:56.609Z,100003.03
2022-12-18T06:41:24.518Z,99997.88
2022-12-18T06:43:59.551Z,100003.84
2022-12-18T06:46:29.278Z,100016.03
2022-12-18T06:48:57.176Z,100003.22
2022-12-18T06:51:25.827Z,99998.28
2022-12-18T06:53:53.698Z,100002.28
2022-12-18T06:56:21.522Z,99996.38
2022-12-18T06:58:53.019Z,99996.31
2022-12-18T07:01:21.071Z,100003.09
2022-12-18T07:03:54.219Z,100007.84
2022-12-18T07:06:23.758Z,100005.22
2022-12-18T07:08:56.010Z,100011.91
2022-12-18T07:11:24.186Z,100018.69
2022-12-18T07:13:55.364Z,100034.22
2022-12-18T07:16:25.585Z,100032.84
2022-12-18T07:18:57.068Z,100028.19
2022-12-18T07:21:26.280Z,100029.91
2022-12-18T07:23:54.252Z,100029.84
2022-12-18T07:26:23.450Z,100029.03
2022-12-18T07:28:51.828Z,100027.75
2022-12-18T07:31:22.921Z,100031.59
2022-12-18T07:33:51.900Z,100044.22
2022-12-18T07:36:25.622Z,100046.56
2022-12-18T07:38:57.001Z,100048.41
2022-12-18T07:41:25.008Z,100050.31
2022-12-18T07:43:52.856Z,100051.03
2022-12-18T07:46:20.875Z,100046.00
2022-12-18T07:48:50.097Z,100043.31
2022-12-18T07:51:19.234Z,100047.97
2022-12-18T07:53:52.122Z,100046.88
2022-12-18T07:56:27.830Z,100041.63
2022-12-18T07:58:59.259Z,100046.06
2022-12-18T08:01:31.959Z,100050.06
2022-12-18T08:04:00.140Z,100046.13
2022-12-18T08:06:27.970Z,100037.88
2022-12-18T08:08:58.217Z,100031.56
2022-12-18T08:11:27.751Z,100035.56
2022-12-18T08:13:55.880Z,100029.84
2022-12-18T08:16:26.125Z,100035.50
2022-12-18T08:18:54.718Z,100043.28
2022-12-18T08:21:24.794Z,100037.31
2022-12-18T08:23:53.587Z,100036.97
2022-12-18T08:26:24.015Z,100046.38
2022-12-18T08:28:52.648Z,100050.03
2022-12-18T08:31:21.086Z,100041.16
2022-12-18T08:33:50.703Z,100045.78
2022-12-18T08:36:21.518Z,100048.66
2022-12-18T08:38:51.952Z,100039.19
2022-12-18T08:41:20.366Z,100038.69
2022-12-18T08:44:07.389Z,100047.28
2022-12-18T08:46:37.868Z,100041.94
2022-12-18T08:49:06.576Z,100040.19
2022-12-18T08:51:37.061Z,100046.31
2022-12-18T08:54:06.335Z,100042.19
2022-12-18T08:56:35.043Z,100040.47
2022-12-18T08:59:05.351Z,100027.91
2022-12-18T09:01:33.393Z,100021.16
2022-12-18T09:04:02.251Z,100023.94
2022-12-18T09:06:30.146Z,100018.59
2022-12-18T09:08:59.157Z,100010.03
2022-12-18T09:11:29.442Z,100012.56
2022-12-18T09:13:58.174Z,100016.72
2022-12-18T09:16:32.288Z,100018.47
2022-12-18T09:19:01.471Z,100022.91
2022-12-18T09:21:31.629Z,100018.59
2022-12-18T09:24:01.207Z,100008.22
2022-12-18T09:26:29.393Z,100004.84
2022-12-18T09:28:57.251Z,100011.63
2022-12-18T09:31:27.101Z,100003.19
2022-12-18T09:33:57.332Z,100002.19
2022-12-18T09:36:25.303Z,100001.47
2022-12-18T09:38:54.160Z,100004.00
2022-12-18T09:41:41.517Z,100001.41
2022-12-18T09:44:21.589Z,99998.06
2022-12-18T09:47:06.908Z,100007.59
2022-12-18T09:49:38.900Z,99995.47
2022-12-18T09:52:13.595Z,99991.38
2022-12-18T09:54:46.589Z,99984.41
2022-12-18T09:57:18.309Z,99984.50
2022-12-18T09:59:49.972Z,99989.72
2022-12-18T10:02:22.497Z,99983.72
2022-12-18T10:05:04.861Z,99991.50
2022-12-18T10:07:46.044Z,99996.69
2022-12-18T10:10:33.850Z,99993.22
2022-12-18T10:13:11.963Z,99996.69
2022-12-18T10:15:51.222Z,99992.38
2022-12-18T10:18:35.768Z,99995.75
2022-12-18T10:21:12.048Z,99997.56
2022-12-18T10:23:48.949Z,100008.78
2022-12-18T10:26:17.096Z,100000.16
2022-12-18T10:28:45.891Z,100004.41
2022-12-18T10:31:18.500Z,100002.72
2022-12-18T10:33:47.938Z,99991.44
2022-12-18T10:36:15.962Z,99988.78
2022-12-18T10:38:44.634Z,99994.06
2022-12-18T10:41:30.705Z,100000.94
2022-12-18T10:44:17.904Z,100002.63
2022-12-18T10:46:55.484Z,99991.44
2022-12-18T10:49:27.322Z,99996.56
2022-12-18T10:52:09.286Z,99987.97
2022-12-18T10:54:38.938Z,99994.84
2022-12-18T10:57:17.920Z,99987.97
2022-12-18T10:59:53.673Z,99991.34
2022-12-18T11:02:30.247Z,99993.94
2022-12-18T11:04:59.598Z,99996.28
2022-12-18T11:07:27.606Z,99990.97
2022-12-18T11:10:05.398Z,99986.59
2022-12-18T11:12:33.424Z,99982.28
2022-12-18T11:15:02.128Z,99971.94
2022-12-18T11:17:33.870Z,99965.78
2022-12-18T11:20:06.679Z,99957.38
2022-12-18T11:22:37.161Z,99959.16
2022-12-18T11:25:32.654Z,99947.88
2022-12-18T11:27:58.623Z,99949.47
2022-12-18T11:30:28.969Z,99946.66
2022-12-18T11:33:02.445Z,99939.09
2022-12-18T11:36:32.155Z,99946.25
2022-12-18T11:39:05.479Z,99948.06
2022-12-18T11:42:00.510Z,99956.06
2022-12-18T11:44:33.884Z,99938.22
2022-12-18T11:47:10.715Z,99935.72
2022-12-18T11:49:43.427Z,99932.16
2022-12-18T11:52:18.537Z,99921.38
2022-12-18T11:54:48.041Z,99926.38
2022-12-18T11:57:30.966Z,99931.25
2022-12-18T12:00:04.789Z,99928.28
2022-12-18T12:03:08.715Z,99914.59
2022-12-18T12:05:53.559Z,99911.75
2022-12-18T12:08:32.775Z,99909.66
2022-12-18T12:11:11.049Z,99904.16
2022-12-18T12:13:49.821Z,99903.28
2022-12-18T12:16:23.263Z,99900.81
2022-12-18T12:19:08.014Z,99895.94
2022-12-18T12:21:41.465Z,99905.91
2022-12-18T12:24:28.261Z,99903.13
2022-12-18T12:27:08.936Z,99892.47
2022-12-18T12:29:49.534Z,99894.91
2022-12-18T12:32:32.162Z,99900.59
2022-12-18T12:35:17.581Z,99899.09
2022-12-18T12:37:53.034Z,99890.78
2022-12-18T12:40:51.216Z,99887.94
2022-12-18T12:43:25.836Z,99899.69
2022-12-18T12:45:57.518Z,99902.19
2022-12-18T12:48:36.097Z,99892.09
2022-12-18T12:51:10.387Z,99901.63
2022-12-18T12:53:40.459Z,99904.28
2022-12-18T12:56:13.222Z,99908.91
2022-12-18T12:58:51.689Z,99911.91
2022-12-18T13:01:29.909Z,99909.34
2022-12-18T13:04:08.846Z,99912.78
2022-12-18T13:06:45.238Z,99904.09
2022-12-18T13:09:14.320Z,99910.06
2022-12-18T13:12:01.559Z,99905.66
2022-12-18T13:14:34.762Z,99914.19
2022-12-18T13:17:32.881Z,99911.56
2022-12-18T13:20:10.445Z,99916.94
2022-12-18T13:22:40.298Z,99916.63
2022-12-18T13:25:34.728Z,99907.09
2022-12-18T13:28:11.178Z,99892.69
2022-12-18T13:30:57.736Z,99904.72
2022-12-18T13:34:23.898Z,99894.41
2022-12-18T13:36:36.376Z,99891.44
2022-12-18T13:39:28.908Z,99889.81
2022-12-18T13:42:49.348Z,99884.88
2022-12-18T13:45:49.850Z,99875.13
2022-12-18T13:48:25.353Z,99875.03
2022-12-18T13:51:01.111Z,99888.31
2022-12-18T13:53:34.773Z,99882.06
2022-12-18T13:56:03.965Z,99885.97
2022-12-18T13:58:31.887Z,99873.09
2022-12-18T14:01:00.311Z,99882.28
2022-12-18T14:03:31.476Z,99881.75
2022-12-18T14:06:07.749Z,99879.16
2022-12-18T14:08:40.877Z,99883.41
2022-12-18T14:11:19.923Z,99894.13
2022-12-18T14:13:49.745Z,99894.91
2022-12-18T14:16:19.671Z,99888.00
2022-12-18T14:18:55.356Z,99890.78
2022-12-18T14:21:28.877Z,99887.22
2022-12-18T14:24:17.555Z,99890.00
2022-12-18T14:26:50.332Z,99893.47
2022-12-18T14:29:27.491Z,99889.94
2022-12-18T14:32:16.962Z,99895.06
2022-12-18T14:34:48.428Z,99899.59
2022-12-18T14:37:19.117Z,99898.75
2022-12-18T14:39:59.035Z,99902.25
2022-12-18T14:42:29.279Z,99893.59
2022-12-18T14:45:41.020Z,99893.59
2022-12-18T14:48:15.426Z,99902.56
2022-12-18T14:50:56.820Z,99905.28
2022-12-18T14:53:30.200Z,99912.22
2022-12-18T14:55:58.212Z,99905.50
2022-12-18T14:58:26.205Z,99911.47
2022-12-18T15:00:55.471Z,99897.78
2022-12-18T15:03:24.228Z,99900.44
2022-12-18T15:05:54.689Z,99900.34
2022-12-18T15:08:36.837Z,99897.78
2022-12-18T15:11:09.013Z,99907.28
2022-12-18T15:13:41.347Z,99895.28
2022-12-18T15:16:14.264Z,99900.47
2022-12-18T15:18:46.132Z,99896.28
2022-12-18T15:21:21.153Z,99891.09
2022-12-18T15:23:51.596Z,99891.13
2022-12-18T15:26:21.684Z,99898.94
2022-12-18T15:28:51.738Z,99881.66
2022-12-18T15:31:26.188Z,99888.63
2022-12-18T15:34:14.356Z,99886.91
2022-12-18T15:36:43.596Z,99891.31
2022-12-18T15:39:14.608Z,99893.06
2022-12-18T15:42:02.616Z,99885.31
2022-12-18T15:44:29.476Z,99883.63
2022-12-18T15:46:58.930Z,99885.34
2022-12-18T15:49:28.909Z,99887.09
2022-12-18T15:52:00.700Z,99896.69
2022-12-18T15:54:46.295Z,99888.91
2022-12-18T15:57:26.583Z,99894.97
2022-12-18T15:59:56.730Z,99891.56
2022-12-18T16:02:24.816Z,99888.97
2022-12-18T16:04:54.888Z,99899.41
2022-12-18T16:07:25.627Z,99902.22
2022-12-18T16:09:55.473Z,99900.44
2022-12-18T16:12:26.338Z,99897.03
2022-12-18T16:14:54.287Z,99901.34
2022-12-18T16:17:24.372Z,99887.47
2022-12-18T16:19:54.593Z,99889.19
2022-12-18T16:22:27.689Z,99894.34
2022-12-18T16:24:57.671Z,99889.16
2022-12-18T16:27:26.645Z,99881.41
2022-12-18T16:29:56.983Z,99882.38
2022-12-18T16:32:24.995Z,99885.84
2022-12-18T16:34:52.929Z,99888.47
2022-12-18T16:37:20.775Z,99880.69
2022-12-18T16:39:50.048Z,99887.63
2022-12-18T16:42:20.162Z,99878.81
2022-12-18T16:44:49.695Z,99882.22
2022-12-18T16:47:18.377Z,99877.88
2022-12-18T16:49:46.680Z,99877.06
2022-12-18T16:52:15.455Z,99884.00
2022-12-18T16:54:43.354Z,99887.50
2022-12-18T16:57:14.724Z,99881.44
2022-12-18T16:59:42.650Z,99887.47
2022-12-18T17:02:15.639Z,99886.66
2022-12-18T17:04:45.677Z,99875.47
2022-12-18T17:07:14.511Z,99875.41
2022-12-18T17:09:42.600Z,99873.75
2022-12-18T17:12:12.156Z,99870.31
2022-12-18T17:14:40.456Z,99860.75
2022-12-18T17:17:21.026Z,99866.84
2022-12-18T17:19:49.571Z,99855.59
2022-12-18T17:22:17.589Z,99864.28
2022-12-18T17:24:45.682Z,99854.00
2022-12-18T17:27:14.957Z,99854.81
2022-12-18T17:29:47.288Z,99853.13
2022-12-18T17:32:16.298Z,99854.81
2022-12-18T17:34:44.558Z,99857.47
2022-12-18T17:37:12.518Z,99853.97
2022-12-18T17:39:42.032Z,99863.47
2022-12-18T17:42:11.503Z,99853.97
2022-12-18T17:44:45.459Z,99858.28
2022-12-18T17:47:14.101Z,99855.72
2022-12-18T17:49:42.105Z,99857.41
2022-12-18T17:52:10.211Z,99860.91
2022-12-18T17:54:41.863Z,99866.09
2022-12-18T17:57:10.407Z,99868.69
2022-12-18T17:59:40.934Z,99854.03
2022-12-18T18:02:12.518Z,99859.22
2022-12-18T18:04:40.745Z,99856.59
2022-12-18T18:07:08.707Z,99853.06
2022-12-18T18:09:36.660Z,99857.47
2022-12-18T18:12:33.783Z,99867.03
2022-12-18T18:15:04.260Z,99856.56
2022-12-18T18:17:33.689Z,99849.72
2022-12-18T18:20:01.545Z,99846.22
2022-12-18T18:22:29.803Z,99841.19
2022-12-18T18:24:58.158Z,99843.78
2022-12-18T18:27:26.143Z,99846.28
2022-12-18T18:29:54.726Z,99844.56
2022-12-18T18:32:22.653Z,99841.13
2022-12-18T18:34:55.064Z,99835.03
2022-12-18T18:37:23.228Z,99833.28
2022-12-18T18:39:51.271Z,99832.47
2022-12-18T18:42:19.092Z,99824.78
2022-12-18T18:44:49.090Z,99820.41
2022-12-18T18:47:17.160Z,99820.41
2022-12-18T18:49:45.105Z,99821.34
2022-12-18T18:52:14.493Z,99827.31
2022-12-18T18:55:03.798Z,99818.69
2022-12-18T18:57:30.889Z,99825.50
2022-12-18T18:59:58.720Z,99830.69
2022-12-18T19:02:26.806Z,99817.78
2022-12-18T19:04:54.789Z,99822.13
2022-12-18T19:07:30.755Z,99826.44
2022-12-18T19:10:04.035Z,99830.78
2022-12-18T19:12:50.887Z,99834.22
2022-12-18T19:15:18.813Z,99826.38
2022-12-18T19:17:47.471Z,99819.47
2022-12-18T19:20:16.118Z,99812.66
2022-12-18T19:22:48.590Z,99809.91
2022-12-18T19:25:40.043Z,99804.69
2022-12-18T19:28:15.357Z,99802.16
2022-12-18T19:30:57.318Z,99805.69
2022-12-18T19:33:46.121Z,99797.84
2022-12-18T19:36:20.194Z,99787.38
2022-12-18T19:38:50.984Z,99791.00
2022-12-18T19:41:20.603Z,99786.69
2022-12-18T19:43:49.954Z,99788.41
2022-12-18T19:46:19.348Z,99785.72
2022-12-18T19:48:48.827Z,99783.09
2022-12-18T19:51:19.082Z,99778.88
2022-12-18T19:53:47.973Z,99777.16
2022-12-18T19:56:19.388Z,99774.47
2022-12-18T19:58:47.889Z,99768.38
2022-12-18T20:01:18.060Z,99763.25
2022-12-18T20:03:51.700Z,99767.63
2022-12-18T20:06:28.000Z,99771.78
2022-12-18T20:09:00.267Z,99773.56
2022-12-18T20:11:30.680Z,99767.63
2022-12-18T20:13:59.487Z,99767.56
2022-12-18T20:16:27.797Z,99765.00
2022-12-18T20:18:56.031Z,99757.16
2022-12-18T20:21:25.196Z,99746.06
2022-12-18T20:23:53.190Z,99740.88
2022-12-18T20:26:21.097Z,99733.84
2022-12-18T20:28:50.309Z,99732.06
2022-12-18T20:31:20.655Z,99723.59
2022-12-18T20:33:51.053Z,99727.75
2022-12-18T20:36:23.564Z,99717.34
2022-12-18T20:38:57.209Z,99716.56
2022-12-18T20:41:35.020Z,99719.88
2022-12-18T20:44:10.464Z,99716.56
2022-12-18T20:46:50.620Z,99730.31
2022-12-18T20:49:18.566Z,99738.94
2022-12-18T20:51:46.515Z,99735.50
2022-12-18T20:54:14.352Z,99741.53
2022-12-18T20:56:42.192Z,99748.53
2022-12-18T20:59:11.748Z,99745.84
2022-12-18T21:01:39.918Z,99740.69
2022-12-18T21:04:15.353Z,99723.38
2022-12-18T21:06:49.423Z,99708.69
2022-12-18T21:09:23.558Z,99712.84
2022-12-18T21:12:08.857Z,99720.59
2022-12-18T21:14:41.240Z,99734.53
2022-12-18T21:17:09.246Z,99742.34
2022-12-18T21:19:37.791Z,99743.16
2022-12-18T21:22:06.236Z,99744.72
2022-12-18T21:24:34.097Z,99731.88
2022-12-18T21:27:03.571Z,99719.69
2022-12-18T21:29:31.648Z,99716.41
2022-12-18T21:32:01.552Z,99725.81
2022-12-18T21:34:34.221Z,99737.25
2022-12-18T21:37:02.733Z,99739.88
2022-12-18T21:39:31.853Z,99732.22
2022-12-18T21:42:17.830Z,99740.75
2022-12-18T21:44:48.944Z,99750.13
2022-12-18T21:47:22.387Z,99739.69
2022-12-18T21:49:53.583Z,99738.00
2022-12-18T21:52:31.169Z,99726.69
2022-12-18T21:55:09.550Z,99711.19
2022-12-18T21:57:39.227Z,99719.00
2022-12-18T22:00:19.328Z,99728.47
2022-12-18T22:03:00.496Z,99718.78
2022-12-18T22:05:37.420Z,99723.25
2022-12-18T22:08:06.791Z,99722.28
2022-12-18T22:10:34.897Z,99719.69
2022-12-18T22:13:05.049Z,99710.94
2022-12-18T22:15:33.314Z,99711.00
2022-12-18T22:18:02.456Z,99705.88
2022-12-18T22:20:30.438Z,99710.28
2022-12-18T22:22:58.538Z,99700.88
2022-12-18T22:25:26.941Z,99704.41
2022-12-18T22:28:12.626Z,99705.22
2022-12-18T22:30:40.562Z,99703.44
2022-12-18T22:33:09.844Z,99711.28
2022-12-18T22:35:37.692Z,99708.72
2022-12-18T22:38:06.375Z,99707.63
2022-12-18T22:40:37.109Z,99709.28
2022-12-18T22:43:05.133Z,99703.16
2022-12-18T22:45:33.075Z,99707.53
2022-12-18T22:48:05.646Z,99703.94
2022-12-18T22:50:34.897Z,99691.91
2022-12-18T22:53:02.816Z,99702.34
2022-12-18T22:55:30.865Z,99700.50
2022-12-18T22:57:58.760Z,99716.19
2022-12-18T23:00:26.930Z,99716.91
2022-12-18T23:03:00.287Z,99721.09
2022-12-18T23:05:30.558Z,99719.41
2022-12-18T23:08:00.138Z,99713.38
2022-12-18T23:10:28.718Z,99722.75
2022-12-18T23:12:56.573Z,99725.34
2022-12-18T23:15:27.961Z,99719.25
2022-12-18T23:17:58.561Z,99719.97
2022-12-18T23:20:27.183Z,99707.84
2022-12-18T23:22:55.190Z,99708.75
2022-12-18T23:25:24.813Z,99710.44
2022-12-18T23:27:53.109Z,99706.03
2022-12-18T23:30:20.993Z,99714.78
2022-12-18T23:32:48.863Z,99708.59
2022-12-18T23:35:16.986Z,99708.44
2022-12-18T23:38:00.955Z,99705.97
2022-12-18T23:40:30.991Z,99704.13
2022-12-18T23:43:01.265Z,99700.06
2022-12-18T23:45:34.169Z,99702.66
2022-12-18T23:48:02.225Z,99699.84
2022-12-18T23:50:32.167Z,99693.00
2022-12-18T23:53:05.311Z,99685.94
2022-12-18T23:55:40.418Z,99696.25
2022-12-18T23:58:16.648Z,99703.72
